sensor_id;sensor_type;location;lat;lon;timestamp;P1;durP1;ratioP1;P2;durP2;ratioP2
20324;SDS011;10320;49.482;11.256;2022-12-10T00:01:07;22.37;;;17.37;;
20324;SDS011;10320;49.482;11.256;2022-12-10T00:03:33;23.93;;;18.47;;
20324;SDS011;10320;49.482;11.256;2022-12-10T00:06:00;21.00;;;18.13;;
20324;SDS011;10320;49.482;11.256;2022-12-10T00:08:27;23.20;;;18.47;;
20324;SDS011;10320;49.482;11.256;2022-12-10T00:10:53;22.83;;;18.07;;
20324;SDS011;10320;49.482;11.256;2022-12-10T00:13:19;23.20;;;19.17;;
20324;SDS011;10320;49.482;11.256;2022-12-10T00:15:45;23.17;;;19.23;;
20324;SDS011;10320;49.482;11.256;2022-12-10T00:18:11;24.20;;;19.13;;
20324;SDS011;10320;49.482;11.256;2022-12-10T00:20:37;26.13;;;20.57;;
20324;SDS011;10320;49.482;11.256;2022-12-10T00:23:03;22.87;;;19.47;;
20324;SDS011;10320;49.482;11.256;2022-12-10T00:25:29;23.10;;;19.57;;
20324;SDS011;10320;49.482;11.256;2022-12-10T00:27:56;21.20;;;18.23;;
20324;SDS011;10320;49.482;11.256;2022-12-10T00:30:22;23.30;;;19.43;;
20324;SDS011;10320;49.482;11.256;2022-12-10T00:32:48;22.40;;;18.90;;
20324;SDS011;10320;49.482;11.256;2022-12-10T00:35:14;22.87;;;18.33;;
20324;SDS011;10320;49.482;11.256;2022-12-10T00:37:40;22.37;;;18.50;;
20324;SDS011;10320;49.482;11.256;2022-12-10T00:40:07;21.50;;;18.20;;
20324;SDS011;10320;49.482;11.256;2022-12-10T00:42:35;22.67;;;18.90;;
20324;SDS011;10320;49.482;11.256;2022-12-10T00:45:01;24.57;;;19.80;;
20324;SDS011;10320;49.482;11.256;2022-12-10T00:47:27;23.87;;;19.20;;
20324;SDS011;10320;49.482;11.256;2022-12-10T00:49:53;22.27;;;19.10;;
20324;SDS011;10320;49.482;11.256;2022-12-10T00:52:19;27.20;;;20.47;;
20324;SDS011;10320;49.482;11.256;2022-12-10T00:54:45;24.47;;;20.03;;
20324;SDS011;10320;49.482;11.256;2022-12-10T00:57:11;27.10;;;21.83;;
20324;SDS011;10320;49.482;11.256;2022-12-10T00:59:37;26.93;;;21.47;;
20324;SDS011;10320;49.482;11.256;2022-12-10T01:02:03;27.07;;;21.63;;
20324;SDS011;10320;49.482;11.256;2022-12-10T01:04:29;25.30;;;21.00;;
20324;SDS011;10320;49.482;11.256;2022-12-10T01:06:55;26.37;;;20.83;;
20324;SDS011;10320;49.482;11.256;2022-12-10T01:09:23;27.13;;;21.73;;
20324;SDS011;10320;49.482;11.256;2022-12-10T01:11:50;26.97;;;21.70;;
20324;SDS011;10320;49.482;11.256;2022-12-10T01:14:18;26.03;;;20.90;;
20324;SDS011;10320;49.482;11.256;2022-12-10T01:16:47;26.23;;;21.43;;
20324;SDS011;10320;49.482;11.256;2022-12-10T01:19:13;25.13;;;21.03;;
20324;SDS011;10320;49.482;11.256;2022-12-10T01:21:40;24.63;;;20.77;;
20324;SDS011;10320;49.482;11.256;2022-12-10T01:24:06;26.87;;;20.70;;
20324;SDS011;10320;49.482;11.256;2022-12-10T01:26:33;26.13;;;20.63;;
20324;SDS011;10320;49.482;11.256;2022-12-10T01:28:59;25.60;;;20.57;;
20324;SDS011;10320;49.482;11.256;2022-12-10T01:31:26;24.30;;;20.43;;
20324;SDS011;10320;49.482;11.256;2022-12-10T01:33:53;24.30;;;19.90;;
20324;SDS011;10320;49.482;11.256;2022-12-10T01:36:22;24.97;;;20.40;;
20324;SDS011;10320;49.482;11.256;2022-12-10T01:38:49;24.53;;;19.67;;
20324;SDS011;10320;49.482;11.256;2022-12-10T01:41:17;27.47;;;21.57;;
20324;SDS011;10320;49.482;11.256;2022-12-10T01:43:59;25.83;;;20.10;;
20324;SDS011;10320;49.482;11.256;2022-12-10T01:46:30;24.77;;;19.67;;
20324;SDS011;10320;49.482;11.256;2022-12-10T01:48:56;23.60;;;19.50;;
20324;SDS011;10320;49.482;11.256;2022-12-10T01:51:24;24.60;;;20.07;;
20324;SDS011;10320;49.482;11.256;2022-12-10T01:53:51;22.77;;;18.77;;
20324;SDS011;10320;49.482;11.256;2022-12-10T01:56:17;22.10;;;17.47;;
20324;SDS011;10320;49.482;11.256;2022-12-10T01:58:44;20.43;;;18.07;;
20324;SDS011;10320;49.482;11.256;2022-12-10T02:01:12;23.73;;;18.83;;
20324;SDS011;10320;49.482;11.256;2022-12-10T02:03:53;24.87;;;18.93;;
20324;SDS011;10320;49.482;11.256;2022-12-10T02:11:40;22.40;;;18.00;;
20324;SDS011;10320;49.482;11.256;2022-12-10T02:14:15;22.97;;;18.10;;
20324;SDS011;10320;49.482;11.256;2022-12-10T02:16:55;21.80;;;17.53;;
20324;SDS011;10320;49.482;11.256;2022-12-10T02:19:26;21.30;;;17.07;;
20324;SDS011;10320;49.482;11.256;2022-12-10T02:21:54;20.43;;;17.00;;
20324;SDS011;10320;49.482;11.256;2022-12-10T02:24:23;20.70;;;17.20;;
20324;SDS011;10320;49.482;11.256;2022-12-10T02:26:55;20.80;;;17.23;;
20324;SDS011;10320;49.482;11.256;2022-12-10T02:29:26;22.40;;;17.63;;
20324;SDS011;10320;49.482;11.256;2022-12-10T02:31:57;21.90;;;18.00;;
20324;SDS011;10320;49.482;11.256;2022-12-10T02:34:26;23.13;;;17.50;;
20324;SDS011;10320;49.482;11.256;2022-12-10T02:36:55;21.67;;;17.73;;
20324;SDS011;10320;49.482;11.256;2022-12-10T02:39:24;21.53;;;17.57;;
20324;SDS011;10320;49.482;11.256;2022-12-10T02:41:53;20.70;;;16.77;;
20324;SDS011;10320;49.482;11.256;2022-12-10T02:44:19;21.83;;;17.87;;
20324;SDS011;10320;49.482;11.256;2022-12-10T02:46:47;23.23;;;17.80;;
20324;SDS011;10320;49.482;11.256;2022-12-10T02:49:14;20.70;;;16.97;;
20324;SDS011;10320;49.482;11.256;2022-12-10T02:51:41;24.23;;;17.50;;
20324;SDS011;10320;49.482;11.256;2022-12-10T02:54:33;23.10;;;17.87;;
20324;SDS011;10320;49.482;11.256;2022-12-10T02:56:58;21.73;;;16.73;;
20324;SDS011;10320;49.482;11.256;2022-12-10T02:59:33;20.43;;;17.13;;
20324;SDS011;10320;49.482;11.256;2022-12-10T03:02:08;23.87;;;17.63;;
20324;SDS011;10320;49.482;11.256;2022-12-10T03:07:10;21.60;;;17.00;;
20324;SDS011;10320;49.482;11.256;2022-12-10T03:09:46;23.30;;;18.57;;
20324;SDS011;10320;49.482;11.256;2022-12-10T03:12:16;21.27;;;17.87;;
20324;SDS011;10320;49.482;11.256;2022-12-10T03:14:44;21.10;;;17.13;;
20324;SDS011;10320;49.482;11.256;2022-12-10T03:17:10;20.17;;;17.00;;
20324;SDS011;10320;49.482;11.256;2022-12-10T03:19:45;21.20;;;16.57;;
20324;SDS011;10320;49.482;11.256;2022-12-10T03:22:13;19.03;;;16.03;;
20324;SDS011;10320;49.482;11.256;2022-12-10T03:24:40;21.30;;;16.80;;
20324;SDS011;10320;49.482;11.256;2022-12-10T03:27:07;19.67;;;16.90;;
20324;SDS011;10320;49.482;11.256;2022-12-10T03:29:39;18.90;;;16.13;;
20324;SDS011;10320;49.482;11.256;2022-12-10T03:32:07;20.13;;;16.27;;
20324;SDS011;10320;49.482;11.256;2022-12-10T03:34:33;20.50;;;15.67;;
20324;SDS011;10320;49.482;11.256;2022-12-10T03:37:00;17.77;;;15.33;;
20324;SDS011;10320;49.482;11.256;2022-12-10T03:39:26;19.23;;;14.93;;
20324;SDS011;10320;49.482;11.256;2022-12-10T03:41:53;20.60;;;15.67;;
20324;SDS011;10320;49.482;11.256;2022-12-10T03:44:32;19.03;;;14.60;;
20324;SDS011;10320;49.482;11.256;2022-12-10T03:46:58;19.13;;;14.87;;
20324;SDS011;10320;49.482;11.256;2022-12-10T03:49:25;17.70;;;14.60;;
20324;SDS011;10320;49.482;11.256;2022-12-10T03:51:51;18.43;;;15.93;;
20324;SDS011;10320;49.482;11.256;2022-12-10T03:54:17;19.40;;;15.33;;
20324;SDS011;10320;49.482;11.256;2022-12-10T03:56:43;19.93;;;15.70;;
20324;SDS011;10320;49.482;11.256;2022-12-10T03:59:09;19.67;;;15.50;;
20324;SDS011;10320;49.482;11.256;2022-12-10T04:01:35;19.87;;;16.03;;
20324;SDS011;10320;49.482;11.256;2022-12-10T04:04:02;19.63;;;16.53;;
20324;SDS011;10320;49.482;11.256;2022-12-10T04:06:28;19.67;;;15.87;;
20324;SDS011;10320;49.482;11.256;2022-12-10T04:08:54;20.00;;;16.17;;
20324;SDS011;10320;49.482;11.256;2022-12-10T04:11:20;19.40;;;15.97;;
20324;SDS011;10320;49.482;11.256;2022-12-10T04:13:46;19.67;;;16.13;;
20324;SDS011;10320;49.482;11.256;2022-12-10T04:16:31;20.03;;;15.40;;
20324;SDS011;10320;49.482;11.256;2022-12-10T04:18:59;18.93;;;15.30;;
20324;SDS011;10320;49.482;11.256;2022-12-10T04:21:26;21.77;;;17.10;;
20324;SDS011;10320;49.482;11.256;2022-12-10T04:24:12;20.00;;;16.10;;
20324;SDS011;10320;49.482;11.256;2022-12-10T04:26:58;19.77;;;15.87;;
20324;SDS011;10320;49.482;11.256;2022-12-10T04:29:25;19.80;;;16.37;;
20324;SDS011;10320;49.482;11.256;2022-12-10T04:31:52;19.73;;;16.10;;
20324;SDS011;10320;49.482;11.256;2022-12-10T04:34:18;20.27;;;16.27;;
20324;SDS011;10320;49.482;11.256;2022-12-10T04:36:45;21.87;;;16.60;;
20324;SDS011;10320;49.482;11.256;2022-12-10T04:39:11;20.73;;;16.17;;
20324;SDS011;10320;49.482;11.256;2022-12-10T04:41:40;20.57;;;16.37;;
20324;SDS011;10320;49.482;11.256;2022-12-10T04:44:07;23.77;;;19.00;;
20324;SDS011;10320;49.482;11.256;2022-12-10T04:46:33;23.93;;;18.17;;
20324;SDS011;10320;49.482;11.256;2022-12-10T04:48:59;21.30;;;17.00;;
20324;SDS011;10320;49.482;11.256;2022-12-10T04:51:25;20.83;;;16.57;;
20324;SDS011;10320;49.482;11.256;2022-12-10T04:53:51;23.37;;;17.27;;
20324;SDS011;10320;49.482;11.256;2022-12-10T04:56:17;21.07;;;16.77;;
20324;SDS011;10320;49.482;11.256;2022-12-10T04:58:43;21.67;;;16.93;;
20324;SDS011;10320;49.482;11.256;2022-12-10T05:01:09;23.00;;;17.73;;
20324;SDS011;10320;49.482;11.256;2022-12-10T05:03:36;35.07;;;27.63;;
20324;SDS011;10320;49.482;11.256;2022-12-10T05:06:09;35.93;;;27.97;;
20324;SDS011;10320;49.482;11.256;2022-12-10T05:08:36;23.27;;;19.30;;
20324;SDS011;10320;49.482;11.256;2022-12-10T05:11:07;23.27;;;18.10;;
20324;SDS011;10320;49.482;11.256;2022-12-10T05:13:33;23.97;;;18.03;;
20324;SDS011;10320;49.482;11.256;2022-12-10T05:16:03;23.13;;;18.67;;
20324;SDS011;10320;49.482;11.256;2022-12-10T05:18:29;21.23;;;18.00;;
20324;SDS011;10320;49.482;11.256;2022-12-10T05:20:57;22.57;;;17.37;;
20324;SDS011;10320;49.482;11.256;2022-12-10T05:23:23;20.97;;;18.33;;
20324;SDS011;10320;49.482;11.256;2022-12-10T05:28:24;22.67;;;17.60;;
20324;SDS011;10320;49.482;11.256;2022-12-10T05:30:50;21.73;;;17.07;;
20324;SDS011;10320;49.482;11.256;2022-12-10T05:33:16;20.20;;;17.20;;
20324;SDS011;10320;49.482;11.256;2022-12-10T05:35:42;20.23;;;16.70;;
20324;SDS011;10320;49.482;11.256;2022-12-10T05:38:08;21.07;;;17.33;;
20324;SDS011;10320;49.482;11.256;2022-12-10T05:40:38;20.03;;;16.73;;
20324;SDS011;10320;49.482;11.256;2022-12-10T05:43:04;21.57;;;17.17;;
20324;SDS011;10320;49.482;11.256;2022-12-10T05:45:33;20.97;;;16.37;;
20324;SDS011;10320;49.482;11.256;2022-12-10T05:47:59;22.47;;;18.30;;
20324;SDS011;10320;49.482;11.256;2022-12-10T05:50:26;20.47;;;16.77;;
20324;SDS011;10320;49.482;11.256;2022-12-10T05:52:52;21.77;;;17.07;;
20324;SDS011;10320;49.482;11.256;2022-12-10T05:55:18;20.93;;;16.10;;
20324;SDS011;10320;49.482;11.256;2022-12-10T05:57:44;20.33;;;16.83;;
20324;SDS011;10320;49.482;11.256;2022-12-10T06:00:10;22.50;;;17.13;;
20324;SDS011;10320;49.482;11.256;2022-12-10T06:02:36;21.97;;;17.07;;
20324;SDS011;10320;49.482;11.256;2022-12-10T06:05:02;22.83;;;17.40;;
20324;SDS011;10320;49.482;11.256;2022-12-10T06:07:29;20.37;;;16.20;;
20324;SDS011;10320;49.482;11.256;2022-12-10T06:09:55;19.33;;;16.27;;
20324;SDS011;10320;49.482;11.256;2022-12-10T06:12:21;21.40;;;15.97;;
20324;SDS011;10320;49.482;11.256;2022-12-10T06:14:47;20.97;;;16.00;;
20324;SDS011;10320;49.482;11.256;2022-12-10T06:17:13;20.17;;;16.00;;
20324;SDS011;10320;49.482;11.256;2022-12-10T06:19:39;19.17;;;16.03;;
20324;SDS011;10320;49.482;11.256;2022-12-10T06:22:05;20.83;;;16.83;;
20324;SDS011;10320;49.482;11.256;2022-12-10T06:24:31;20.93;;;16.73;;
20324;SDS011;10320;49.482;11.256;2022-12-10T06:26:57;20.87;;;16.60;;
20324;SDS011;10320;49.482;11.256;2022-12-10T06:29:23;19.37;;;16.00;;
20324;SDS011;10320;49.482;11.256;2022-12-10T06:31:49;20.23;;;15.70;;
20324;SDS011;10320;49.482;11.256;2022-12-10T06:34:15;20.83;;;16.13;;
20324;SDS011;10320;49.482;11.256;2022-12-10T06:36:41;21.47;;;16.03;;
20324;SDS011;10320;49.482;11.256;2022-12-10T06:39:07;21.53;;;16.33;;
20324;SDS011;10320;49.482;11.256;2022-12-10T06:41:33;20.03;;;16.57;;
20324;SDS011;10320;49.482;11.256;2022-12-10T06:43:59;22.90;;;17.37;;
20324;SDS011;10320;49.482;11.256;2022-12-10T06:46:26;20.87;;;17.13;;
20324;SDS011;10320;49.482;11.256;2022-12-10T06:48:55;20.13;;;16.77;;
20324;SDS011;10320;49.482;11.256;2022-12-10T06:51:21;20.77;;;17.30;;
20324;SDS011;10320;49.482;11.256;2022-12-10T06:53:47;22.27;;;18.37;;
20324;SDS011;10320;49.482;11.256;2022-12-10T06:56:15;21.50;;;17.93;;
20324;SDS011;10320;49.482;11.256;2022-12-10T06:58:41;21.10;;;17.63;;
20324;SDS011;10320;49.482;11.256;2022-12-10T07:01:14;21.90;;;17.40;;
20324;SDS011;10320;49.482;11.256;2022-12-10T07:03:40;20.27;;;16.97;;
20324;SDS011;10320;49.482;11.256;2022-12-10T07:06:07;23.37;;;18.03;;
20324;SDS011;10320;49.482;11.256;2022-12-10T07:08:34;21.13;;;17.93;;
20324;SDS011;10320;49.482;11.256;2022-12-10T07:11:03;21.80;;;18.53;;
20324;SDS011;10320;49.482;11.256;2022-12-10T07:13:29;21.70;;;16.53;;
20324;SDS011;10320;49.482;11.256;2022-12-10T07:15:55;18.60;;;15.10;;
20324;SDS011;10320;49.482;11.256;2022-12-10T07:18:21;21.97;;;17.80;;
20324;SDS011;10320;49.482;11.256;2022-12-10T07:20:47;22.33;;;17.97;;
20324;SDS011;10320;49.482;11.256;2022-12-10T07:23:13;20.90;;;17.43;;
20324;SDS011;10320;49.482;11.256;2022-12-10T07:25:39;21.07;;;16.77;;
20324;SDS011;10320;49.482;11.256;2022-12-10T07:28:05;20.57;;;16.87;;
20324;SDS011;10320;49.482;11.256;2022-12-10T07:30:31;22.07;;;17.00;;
20324;SDS011;10320;49.482;11.256;2022-12-10T07:32:58;22.60;;;18.07;;
20324;SDS011;10320;49.482;11.256;2022-12-10T07:35:24;17.53;;;15.70;;
20324;SDS011;10320;49.482;11.256;2022-12-10T07:37:50;20.20;;;16.23;;
20324;SDS011;10320;49.482;11.256;2022-12-10T07:40:16;19.40;;;16.97;;
20324;SDS011;10320;49.482;11.256;2022-12-10T07:42:42;18.77;;;16.00;;
20324;SDS011;10320;49.482;11.256;2022-12-10T07:45:08;19.73;;;16.30;;
20324;SDS011;10320;49.482;11.256;2022-12-10T07:47:37;19.17;;;16.40;;
20324;SDS011;10320;49.482;11.256;2022-12-10T07:50:04;21.33;;;17.10;;
20324;SDS011;10320;49.482;11.256;2022-12-10T07:52:30;22.87;;;17.17;;
20324;SDS011;10320;49.482;11.256;2022-12-10T07:54:56;20.50;;;16.60;;
20324;SDS011;10320;49.482;11.256;2022-12-10T07:57:23;19.13;;;16.60;;
20324;SDS011;10320;49.482;11.256;2022-12-10T07:59:49;20.57;;;16.53;;
20324;SDS011;10320;49.482;11.256;2022-12-10T08:02:15;20.73;;;16.03;;
20324;SDS011;10320;49.482;11.256;2022-12-10T08:04:41;21.30;;;16.60;;
20324;SDS011;10320;49.482;11.256;2022-12-10T08:07:08;19.07;;;15.83;;
20324;SDS011;10320;49.482;11.256;2022-12-10T08:09:34;19.70;;;16.87;;
20324;SDS011;10320;49.482;11.256;2022-12-10T08:12:00;23.03;;;16.27;;
20324;SDS011;10320;49.482;11.256;2022-12-10T08:14:26;20.27;;;15.93;;
20324;SDS011;10320;49.482;11.256;2022-12-10T08:16:52;21.27;;;17.10;;
20324;SDS011;10320;49.482;11.256;2022-12-10T08:19:18;20.70;;;16.60;;
20324;SDS011;10320;49.482;11.256;2022-12-10T08:21:44;19.97;;;16.17;;
20324;SDS011;10320;49.482;11.256;2022-12-10T08:24:10;18.97;;;16.27;;
20324;SDS011;10320;49.482;11.256;2022-12-10T08:26:36;19.30;;;16.00;;
20324;SDS011;10320;49.482;11.256;2022-12-10T08:29:03;19.33;;;16.20;;
20324;SDS011;10320;49.482;11.256;2022-12-10T08:31:29;21.13;;;17.80;;
20324;SDS011;10320;49.482;11.256;2022-12-10T08:33:56;20.30;;;16.73;;
20324;SDS011;10320;49.482;11.256;2022-12-10T08:36:22;19.43;;;15.97;;
20324;SDS011;10320;49.482;11.256;2022-12-10T08:38:48;19.20;;;16.57;;
20324;SDS011;10320;49.482;11.256;2022-12-10T08:41:18;20.30;;;15.90;;
20324;SDS011;10320;49.482;11.256;2022-12-10T08:43:44;19.80;;;15.80;;
20324;SDS011;10320;49.482;11.256;2022-12-10T08:46:11;19.27;;;15.47;;
20324;SDS011;10320;49.482;11.256;2022-12-10T08:48:37;21.00;;;16.77;;
20324;SDS011;10320;49.482;11.256;2022-12-10T08:51:04;19.83;;;15.93;;
20324;SDS011;10320;49.482;11.256;2022-12-10T08:53:30;19.90;;;16.40;;
20324;SDS011;10320;49.482;11.256;2022-12-10T08:55:56;19.53;;;15.67;;
20324;SDS011;10320;49.482;11.256;2022-12-10T08:58:22;20.53;;;16.10;;
20324;SDS011;10320;49.482;11.256;2022-12-10T09:00:49;20.77;;;16.83;;
20324;SDS011;10320;49.482;11.256;2022-12-10T09:03:15;19.60;;;16.23;;
20324;SDS011;10320;49.482;11.256;2022-12-10T09:05:41;20.93;;;17.30;;
20324;SDS011;10320;49.482;11.256;2022-12-10T09:08:08;20.07;;;16.20;;
20324;SDS011;10320;49.482;11.256;2022-12-10T09:10:35;18.87;;;16.87;;
20324;SDS011;10320;49.482;11.256;2022-12-10T09:13:01;19.97;;;16.70;;
20324;SDS011;10320;49.482;11.256;2022-12-10T09:15:27;21.37;;;16.77;;
20324;SDS011;10320;49.482;11.256;2022-12-10T09:17:53;19.93;;;15.63;;
20324;SDS011;10320;49.482;11.256;2022-12-10T09:20:19;20.53;;;16.50;;
20324;SDS011;10320;49.482;11.256;2022-12-10T09:22:45;19.80;;;17.00;;
20324;SDS011;10320;49.482;11.256;2022-12-10T09:25:11;19.53;;;16.70;;
20324;SDS011;10320;49.482;11.256;2022-12-10T09:27:40;19.03;;;16.50;;
20324;SDS011;10320;49.482;11.256;2022-12-10T09:30:06;18.40;;;16.43;;
20324;SDS011;10320;49.482;11.256;2022-12-10T09:32:33;20.13;;;16.90;;
20324;SDS011;10320;49.482;11.256;2022-12-10T09:34:59;19.23;;;17.00;;
20324;SDS011;10320;49.482;11.256;2022-12-10T09:37:25;20.30;;;17.20;;
20324;SDS011;10320;49.482;11.256;2022-12-10T09:39:51;20.47;;;17.27;;
20324;SDS011;10320;49.482;11.256;2022-12-10T09:45:02;20.50;;;16.50;;
20324;SDS011;10320;49.482;11.256;2022-12-10T09:47:32;21.00;;;17.00;;
20324;SDS011;10320;49.482;11.256;2022-12-10T09:50:10;19.90;;;17.13;;
20324;SDS011;10320;49.482;11.256;2022-12-10T09:52:39;19.43;;;17.30;;
20324;SDS011;10320;49.482;11.256;2022-12-10T09:55:49;19.83;;;16.63;;
20324;SDS011;10320;49.482;11.256;2022-12-10T09:57:56;21.27;;;17.60;;
20324;SDS011;10320;49.482;11.256;2022-12-10T10:00:23;20.30;;;16.87;;
20324;SDS011;10320;49.482;11.256;2022-12-10T10:02:50;19.87;;;17.77;;
20324;SDS011;10320;49.482;11.256;2022-12-10T10:05:21;20.30;;;17.10;;
20324;SDS011;10320;49.482;11.256;2022-12-10T10:07:49;19.03;;;17.03;;
20324;SDS011;10320;49.482;11.256;2022-12-10T10:10:22;19.83;;;16.33;;
20324;SDS011;10320;49.482;11.256;2022-12-10T10:12:50;18.73;;;16.73;;
20324;SDS011;10320;49.482;11.256;2022-12-10T10:15:18;20.80;;;17.47;;
20324;SDS011;10320;49.482;11.256;2022-12-10T10:17:47;19.40;;;17.30;;
20324;SDS011;10320;49.482;11.256;2022-12-10T10:20:14;22.00;;;18.10;;
20324;SDS011;10320;49.482;11.256;2022-12-10T10:22:41;18.97;;;16.97;;
20324;SDS011;10320;49.482;11.256;2022-12-10T10:25:16;20.77;;;17.30;;
20324;SDS011;10320;49.482;11.256;2022-12-10T10:27:43;20.20;;;17.63;;
20324;SDS011;10320;49.482;11.256;2022-12-10T10:30:17;19.97;;;17.27;;
20324;SDS011;10320;49.482;11.256;2022-12-10T10:37:51;19.13;;;17.10;;
20324;SDS011;10320;49.482;11.256;2022-12-10T10:40:22;18.63;;;16.43;;
20324;SDS011;10320;49.482;11.256;2022-12-10T10:42:48;18.93;;;16.10;;
20324;SDS011;10320;49.482;11.256;2022-12-10T10:50:53;20.00;;;17.53;;
20324;SDS011;10320;49.482;11.256;2022-12-10T10:54:01;20.33;;;16.43;;
20324;SDS011;10320;49.482;11.256;2022-12-10T10:56:13;19.00;;;16.70;;
20324;SDS011;10320;49.482;11.256;2022-12-10T11:01:24;19.57;;;17.20;;
20324;SDS011;10320;49.482;11.256;2022-12-10T11:03:53;19.63;;;16.90;;
20324;SDS011;10320;49.482;11.256;2022-12-10T11:06:20;19.90;;;17.20;;
20324;SDS011;10320;49.482;11.256;2022-12-10T11:08:46;20.57;;;18.37;;
20324;SDS011;10320;49.482;11.256;2022-12-10T11:11:20;19.20;;;17.20;;
20324;SDS011;10320;49.482;11.256;2022-12-10T11:13:48;20.23;;;17.77;;
20324;SDS011;10320;49.482;11.256;2022-12-10T11:18:41;23.27;;;18.90;;
20324;SDS011;10320;49.482;11.256;2022-12-10T11:23:42;20.07;;;17.27;;
20324;SDS011;10320;49.482;11.256;2022-12-10T11:33:45;19.50;;;16.47;;
20324;SDS011;10320;49.482;11.256;2022-12-10T11:36:27;17.70;;;15.27;;
20324;SDS011;10320;49.482;11.256;2022-12-10T11:41:41;17.00;;;14.73;;
20324;SDS011;10320;49.482;11.256;2022-12-10T11:49:30;18.17;;;15.63;;
20324;SDS011;10320;49.482;11.256;2022-12-10T11:52:20;18.63;;;16.03;;
20324;SDS011;10320;49.482;11.256;2022-12-10T11:54:51;18.13;;;14.93;;
20324;SDS011;10320;49.482;11.256;2022-12-10T11:57:27;18.93;;;15.83;;
20324;SDS011;10320;49.482;11.256;2022-12-10T12:08:10;18.47;;;15.73;;
20324;SDS011;10320;49.482;11.256;2022-12-10T12:13:30;16.77;;;14.97;;
20324;SDS011;10320;49.482;11.256;2022-12-10T12:16:01;19.40;;;15.53;;
20324;SDS011;10320;49.482;11.256;2022-12-10T12:21:14;20.30;;;16.40;;
20324;SDS011;10320;49.482;11.256;2022-12-10T12:26:08;22.83;;;19.40;;
20324;SDS011;10320;49.482;11.256;2022-12-10T12:28:40;19.80;;;16.73;;
20324;SDS011;10320;49.482;11.256;2022-12-10T12:31:09;22.37;;;17.57;;
20324;SDS011;10320;49.482;11.256;2022-12-10T12:33:42;19.40;;;17.30;;
20324;SDS011;10320;49.482;11.256;2022-12-10T12:36:11;19.47;;;17.27;;
20324;SDS011;10320;49.482;11.256;2022-12-10T12:49:58;22.97;;;19.50;;
20324;SDS011;10320;49.482;11.256;2022-12-10T12:54:59;25.00;;;20.63;;
20324;SDS011;10320;49.482;11.256;2022-12-10T12:57:44;25.00;;;20.33;;
20324;SDS011;10320;49.482;11.256;2022-12-10T13:00:12;25.97;;;21.30;;
20324;SDS011;10320;49.482;11.256;2022-12-10T13:05:30;27.97;;;21.77;;
20324;SDS011;10320;49.482;11.256;2022-12-10T13:10:51;24.50;;;21.27;;
20324;SDS011;10320;49.482;11.256;2022-12-10T13:13:25;27.27;;;22.07;;
20324;SDS011;10320;49.482;11.256;2022-12-10T13:15:53;28.50;;;23.00;;
20324;SDS011;10320;49.482;11.256;2022-12-10T13:18:37;28.20;;;22.73;;
20324;SDS011;10320;49.482;11.256;2022-12-10T13:23:53;28.40;;;22.87;;
20324;SDS011;10320;49.482;11.256;2022-12-10T13:26:28;29.10;;;22.73;;
20324;SDS011;10320;49.482;11.256;2022-12-10T13:29:10;28.47;;;22.13;;
20324;SDS011;10320;49.482;11.256;2022-12-10T13:31:36;27.27;;;22.50;;
20324;SDS011;10320;49.482;11.256;2022-12-10T13:36:36;27.27;;;22.43;;
20324;SDS011;10320;49.482;11.256;2022-12-10T13:41:28;38.97;;;30.50;;
20324;SDS011;10320;49.482;11.256;2022-12-10T13:44:25;37.37;;;29.07;;
20324;SDS011;10320;49.482;11.256;2022-12-10T13:49:46;30.27;;;24.10;;
20324;SDS011;10320;49.482;11.256;2022-12-10T13:52:15;30.27;;;24.63;;
20324;SDS011;10320;49.482;11.256;2022-12-10T13:54:59;29.10;;;23.53;;
20324;SDS011;10320;49.482;11.256;2022-12-10T14:00:15;31.60;;;24.77;;
20324;SDS011;10320;49.482;11.256;2022-12-10T14:08:24;32.03;;;24.57;;
20324;SDS011;10320;49.482;11.256;2022-12-10T14:10:52;27.67;;;22.37;;
20324;SDS011;10320;49.482;11.256;2022-12-10T14:13:19;28.50;;;23.40;;
20324;SDS011;10320;49.482;11.256;2022-12-10T14:15:51;30.47;;;23.47;;
20324;SDS011;10320;49.482;11.256;2022-12-10T14:18:19;28.70;;;23.87;;
20324;SDS011;10320;49.482;11.256;2022-12-10T14:20:46;30.37;;;24.53;;
20324;SDS011;10320;49.482;11.256;2022-12-10T14:26:15;31.37;;;24.27;;
20324;SDS011;10320;49.482;11.256;2022-12-10T14:28:48;30.07;;;24.47;;
20324;SDS011;10320;49.482;11.256;2022-12-10T14:31:20;28.97;;;23.17;;
20324;SDS011;10320;49.482;11.256;2022-12-10T14:33:48;30.27;;;24.97;;
20324;SDS011;10320;49.482;11.256;2022-12-10T14:36:16;33.90;;;26.17;;
20324;SDS011;10320;49.482;11.256;2022-12-10T14:38:43;31.37;;;24.90;;
20324;SDS011;10320;49.482;11.256;2022-12-10T14:41:10;34.20;;;25.43;;
20324;SDS011;10320;49.482;11.256;2022-12-10T14:43:39;31.83;;;25.17;;
20324;SDS011;10320;49.482;11.256;2022-12-10T14:46:12;32.37;;;25.70;;
20324;SDS011;10320;49.482;11.256;2022-12-10T14:48:39;32.63;;;25.80;;
20324;SDS011;10320;49.482;11.256;2022-12-10T14:51:15;33.80;;;26.20;;
20324;SDS011;10320;49.482;11.256;2022-12-10T14:53:41;33.73;;;26.07;;
20324;SDS011;10320;49.482;11.256;2022-12-10T14:56:08;33.53;;;26.03;;
20324;SDS011;10320;49.482;11.256;2022-12-10T14:58:38;33.87;;;26.33;;
20324;SDS011;10320;49.482;11.256;2022-12-10T15:01:04;32.57;;;26.27;;
20324;SDS011;10320;49.482;11.256;2022-12-10T15:03:32;35.37;;;28.27;;
20324;SDS011;10320;49.482;11.256;2022-12-10T15:05:59;34.17;;;26.60;;
20324;SDS011;10320;49.482;11.256;2022-12-10T15:08:26;33.93;;;27.07;;
20324;SDS011;10320;49.482;11.256;2022-12-10T15:10:56;33.83;;;27.43;;
20324;SDS011;10320;49.482;11.256;2022-12-10T15:13:33;32.73;;;26.77;;
20324;SDS011;10320;49.482;11.256;2022-12-10T15:16:00;33.80;;;27.70;;
20324;SDS011;10320;49.482;11.256;2022-12-10T15:18:31;37.77;;;26.63;;
20324;SDS011;10320;49.482;11.256;2022-12-10T15:21:43;34.67;;;27.03;;
20324;SDS011;10320;49.482;11.256;2022-12-10T15:23:49;32.73;;;27.10;;
20324;SDS011;10320;49.482;11.256;2022-12-10T15:26:23;36.50;;;28.70;;
20324;SDS011;10320;49.482;11.256;2022-12-10T15:28:52;36.10;;;27.57;;
20324;SDS011;10320;49.482;11.256;2022-12-10T15:38:43;31.27;;;24.40;;
20324;SDS011;10320;49.482;11.256;2022-12-10T15:43:58;31.27;;;25.67;;
20324;SDS011;10320;49.482;11.256;2022-12-10T15:46:26;32.63;;;25.93;;
20324;SDS011;10320;49.482;11.256;2022-12-10T15:48:52;33.60;;;25.47;;
20324;SDS011;10320;49.482;11.256;2022-12-10T15:51:18;31.83;;;24.83;;
20324;SDS011;10320;49.482;11.256;2022-12-10T15:53:44;32.70;;;25.07;;
20324;SDS011;10320;49.482;11.256;2022-12-10T15:56:10;30.07;;;23.50;;
20324;SDS011;10320;49.482;11.256;2022-12-10T15:58:36;31.33;;;24.47;;
20324;SDS011;10320;49.482;11.256;2022-12-10T16:01:02;32.57;;;24.47;;
20324;SDS011;10320;49.482;11.256;2022-12-10T16:03:28;26.60;;;23.23;;
20324;SDS011;10320;49.482;11.256;2022-12-10T16:05:54;30.40;;;23.30;;
20324;SDS011;10320;49.482;11.256;2022-12-10T16:08:25;27.40;;;23.10;;
20324;SDS011;10320;49.482;11.256;2022-12-10T16:10:56;31.93;;;26.37;;